createdAt,value
2023-03-22T00:01:46.351Z,95661.69
2023-03-22T00:04:12.955Z,95672.63
2023-03-22T00:06:39.612Z,95662.47
2023-03-22T00:09:06.187Z,95661.03
2023-03-22T00:11:32.665Z,95660.81
2023-03-22T00:13:59.728Z,95656.31
2023-03-22T00:16:26.336Z,95653.47
2023-03-22T00:18:52.848Z,95653.84
2023-03-22T00:21:19.295Z,95655.22
2023-03-22T00:23:45.996Z,95653.97
2023-03-22T00:26:13.061Z,95656.97
2023-03-22T00:28:39.488Z,95656.94
2023-03-22T00:31:06.546Z,95653.88
2023-03-22T00:33:33.704Z,95652.81
2023-03-22T00:36:01.939Z,95659.84
2023-03-22T00:38:43.762Z,95656.72
2023-03-22T00:41:11.034Z,95658.13
2023-03-22T00:43:38.022Z,95645.72
2023-03-22T00:46:05.091Z,95651.94
2023-03-22T00:48:31.753Z,95647.59
2023-03-22T00:50:58.500Z,95651.84
2023-03-22T00:53:25.059Z,95652.63
2023-03-22T00:55:51.676Z,95651.72
2023-03-22T00:58:18.139Z,95646.84
2023-03-22T01:00:45.444Z,95651.06
2023-03-22T01:03:14.298Z,95648.84
2023-03-22T01:05:40.753Z,95647.56
2023-03-22T01:08:10.169Z,95640.06
2023-03-22T01:10:37.755Z,95634.81
2023-03-22T01:13:04.533Z,95631.19
2023-03-22T01:15:31.003Z,95633.63
2023-03-22T01:17:57.725Z,95627.16
2023-03-22T01:20:24.279Z,95626.53
2023-03-22T01:22:51.365Z,95625.72
2023-03-22T01:25:17.995Z,95620.91
2023-03-22T01:27:44.835Z,95629.78
2023-03-22T01:30:11.925Z,95626.53
2023-03-22T01:32:38.565Z,95621.28
2023-03-22T01:35:06.308Z,95614.00
2023-03-22T01:37:32.893Z,95619.66
2023-03-22T01:39:59.637Z,95607.50
2023-03-22T01:42:26.672Z,95610.75
2023-03-22T01:45:11.796Z,95605.94
2023-03-22T01:47:38.251Z,95613.47
2023-03-22T01:50:05.327Z,95608.78
2023-03-22T01:52:31.905Z,95608.00
2023-03-22T01:54:58.481Z,95604.75
2023-03-22T01:57:25.521Z,95604.75
2023-03-22T01:59:52.144Z,95599.09
2023-03-22T02:02:19.258Z,95602.34
2023-03-22T02:04:50.623Z,95601.34
2023-03-22T02:07:26.074Z,95602.34
2023-03-22T02:09:53.008Z,95602.16
2023-03-22T02:12:25.449Z,95595.09
2023-03-22T02:14:55.015Z,95598.28
2023-03-22T02:17:28.162Z,95592.66
2023-03-22T02:20:11.185Z,95590.91
2023-03-22T02:22:50.126Z,95593.38
2023-03-22T02:25:31.825Z,95597.19
2023-03-22T02:28:10.493Z,95601.44
2023-03-22T02:30:40.093Z,95595.56
2023-03-22T02:33:14.590Z,95598.78
2023-03-22T02:35:41.045Z,95590.75
2023-03-22T02:38:25.941Z,95598.44
2023-03-22T02:41:10.742Z,95590.34
2023-03-22T02:43:41.645Z,95597.84
2023-03-22T02:46:30.787Z,95600.50
2023-03-22T02:49:04.557Z,95595.63
2023-03-22T02:51:57.103Z,95593.97
2023-03-22T02:54:29.954Z,95599.66
2023-03-22T02:57:03.136Z,95603.31
2023-03-22T02:59:31.683Z,95610.38
2023-03-22T03:02:00.366Z,95603.91
2023-03-22T03:04:29.216Z,95604.13
2023-03-22T03:06:58.995Z,95604.13
2023-03-22T03:09:26.022Z,95604.50
2023-03-22T03:11:53.216Z,95608.44
2023-03-22T03:14:24.057Z,95612.34
2023-03-22T03:16:56.029Z,95607.03
2023-03-22T03:19:29.656Z,95605.25
2023-03-22T03:21:56.070Z,95612.38
2023-03-22T03:24:27.559Z,95610.44
2023-03-22T03:26:59.989Z,95619.25
2023-03-22T03:29:26.459Z,95610.13
2023-03-22T03:31:57.782Z,95616.66
2023-03-22T03:34:34.945Z,95615.25
2023-03-22T03:37:14.537Z,95607.56
2023-03-22T03:39:52.940Z,95608.53
2023-03-22T03:42:21.089Z,95606.09
2023-03-22T03:44:48.186Z,95599.63
2023-03-22T03:47:14.727Z,95604.13
2023-03-22T03:49:42.084Z,95604.56
2023-03-22T03:52:08.552Z,95610.00
2023-03-22T03:54:35.045Z,95610.63
2023-03-22T03:57:03.993Z,95602.34
2023-03-22T03:59:30.698Z,95606.63
2023-03-22T04:01:57.222Z,95611.88
2023-03-22T04:04:27.940Z,95603.59
2023-03-22T04:06:58.476Z,95608.47
2023-03-22T04:09:30.009Z,95604.66
2023-03-22T04:11:57.109Z,95604.47
2023-03-22T04:14:24.294Z,95607.91
2023-03-22T04:16:50.854Z,95600.03
2023-03-22T04:19:17.586Z,95604.28
2023-03-22T04:21:44.290Z,95607.72
2023-03-22T04:24:10.881Z,95602.22
2023-03-22T04:26:37.509Z,95610.13
2023-03-22T04:29:04.303Z,95602.22
2023-03-22T04:31:31.799Z,95604.03
2023-03-22T04:34:05.607Z,95603.84
2023-03-22T04:36:36.373Z,95601.84
2023-03-22T04:39:06.990Z,95602.47
2023-03-22T04:41:34.321Z,95596.38
2023-03-22T04:44:03.327Z,95607.09
2023-03-22T04:46:30.808Z,95607.09
2023-03-22T04:48:57.339Z,95600.81
2023-03-22T04:51:24.082Z,95601.00
2023-03-22T04:53:50.526Z,95594.97
2023-03-22T04:56:17.000Z,95609.09
2023-03-22T04:58:44.306Z,95604.84
2023-03-22T05:01:11.727Z,95602.03
2023-03-22T05:03:38.455Z,95613.19
2023-03-22T05:06:06.633Z,95603.44
2023-03-22T05:08:33.560Z,95607.72
2023-03-22T05:11:05.357Z,95617.25
2023-03-22T05:13:31.934Z,95613.81
2023-03-22T05:15:59.507Z,95611.53
2023-03-22T05:18:26.392Z,95616.19
2023-03-22T05:20:54.692Z,95616.38
2023-03-22T05:23:22.282Z,95616.75
2023-03-22T05:25:49.598Z,95610.50
2023-03-22T05:28:19.545Z,95613.94
2023-03-22T05:30:46.057Z,95616.56
2023-03-22T05:33:12.697Z,95622.84
2023-03-22T05:35:40.148Z,95625.66
2023-03-22T05:38:06.996Z,95627.28
2023-03-22T05:40:33.948Z,95633.91
2023-03-22T05:43:00.398Z,95638.19
2023-03-22T05:45:27.093Z,95634.94
2023-03-22T05:47:53.611Z,95634.44
2023-03-22T05:50:21.947Z,95635.03
2023-03-22T05:52:48.606Z,95631.56
2023-03-22T05:55:17.586Z,95634.31
2023-03-22T05:57:44.765Z,95634.66
2023-03-22T06:00:13.526Z,95631.19
2023-03-22T06:02:40.663Z,95634.41
2023-03-22T06:05:07.628Z,95640.69
2023-03-22T06:07:34.573Z,95641.06
2023-03-22T06:10:01.154Z,95641.06
2023-03-22T06:12:30.024Z,95651.72
2023-03-22T06:14:56.782Z,95651.44
2023-03-22T06:17:24.087Z,95655.66
2023-03-22T06:19:52.948Z,95651.31
2023-03-22T06:22:20.032Z,95655.75
2023-03-22T06:24:46.553Z,95648.16
2023-03-22T06:27:13.429Z,95650.41
2023-03-22T06:29:40.244Z,95651.44
2023-03-22T06:32:06.942Z,95655.97
2023-03-22T06:34:33.392Z,95653.22
2023-03-22T06:36:59.931Z,95656.84
2023-03-22T06:39:26.425Z,95658.03
2023-03-22T06:41:52.878Z,95652.97
2023-03-22T06:44:19.406Z,95657.34
2023-03-22T06:46:45.986Z,95661.09
2023-03-22T06:49:12.520Z,95664.84
2023-03-22T06:51:39.027Z,95658.31
2023-03-22T06:54:05.628Z,95661.50
2023-03-22T06:56:32.084Z,95655.06
2023-03-22T06:58:58.590Z,95667.19
2023-03-22T07:01:25.435Z,95661.75
2023-03-22T07:03:51.964Z,95663.56
2023-03-22T07:06:18.410Z,95667.03
2023-03-22T07:08:44.847Z,95668.81
2023-03-22T07:11:11.317Z,95662.59
2023-03-22T07:13:37.836Z,95667.84
2023-03-22T07:16:04.444Z,95665.09
2023-03-22T07:18:30.926Z,95661.91
2023-03-22T07:20:57.490Z,95657.47
2023-03-22T07:23:24.164Z,95662.72
2023-03-22T07:25:51.669Z,95663.09
2023-03-22T07:28:18.120Z,95660.84
2023-03-22T07:30:44.551Z,95666.38
2023-03-22T07:33:11.253Z,95671.97
2023-03-22T07:35:38.588Z,95665.72
2023-03-22T07:38:05.128Z,95668.88
2023-03-22T07:40:31.887Z,95660.13
2023-03-22T07:43:01.442Z,95665.63
2023-03-22T07:45:28.328Z,95673.56
2023-03-22T07:47:54.929Z,95666.03
2023-03-22T07:50:21.423Z,95670.16
2023-03-22T07:52:48.035Z,95663.69
2023-03-22T07:55:14.849Z,95658.63
2023-03-22T07:57:41.418Z,95656.88
2023-03-22T08:00:12.073Z,95651.66
2023-03-22T08:02:38.969Z,95663.25
2023-03-22T08:05:06.000Z,95653.78
2023-03-22T08:07:32.483Z,95657.09
2023-03-22T08:09:59.403Z,95653.09
2023-03-22T08:12:28.169Z,95649.09
2023-03-22T08:14:55.101Z,95650.41
2023-03-22T08:17:21.573Z,95649.41
2023-03-22T08:19:48.007Z,95644.78
2023-03-22T08:22:15.446Z,95653.34
2023-03-22T08:24:42.265Z,95658.28
2023-03-22T08:27:08.726Z,95656.69
2023-03-22T08:29:35.370Z,95657.16
2023-03-22T08:32:03.692Z,95650.66
2023-03-22T08:34:31.362Z,95655.53
2023-03-22T08:36:57.920Z,95650.31
2023-03-22T08:39:24.723Z,95657.00
2023-03-22T08:41:51.426Z,95653.81
2023-03-22T08:44:17.850Z,95645.50
2023-03-22T08:46:44.302Z,95650.00
2023-03-22T08:49:10.828Z,95649.59
2023-03-22T08:51:37.295Z,95647.59
2023-03-22T08:54:04.548Z,95654.53
2023-03-22T08:56:32.427Z,95647.22
2023-03-22T08:58:58.965Z,95641.13
2023-03-22T09:01:26.667Z,95644.16
2023-03-22T09:03:53.290Z,95641.34
2023-03-22T09:06:19.741Z,95635.06
2023-03-22T09:08:47.037Z,95637.06
2023-03-22T09:11:13.834Z,95630.75
2023-03-22T09:13:40.808Z,95622.00
2023-03-22T09:16:09.139Z,95625.25
2023-03-22T09:18:36.216Z,95623.16
2023-03-22T09:21:02.850Z,95627.19
2023-03-22T09:23:30.455Z,95619.44
2023-03-22T09:25:59.535Z,95621.44
2023-03-22T09:28:26.499Z,95626.50
2023-03-22T09:30:53.450Z,95616.06
2023-03-22T09:33:19.934Z,95616.84
2023-03-22T09:35:46.457Z,95614.13
2023-03-22T09:38:13.752Z,95610.75
2023-03-22T09:40:46.793Z,95596.84
2023-03-22T09:43:15.569Z,95600.44
2023-03-22T09:45:43.814Z,95595.66
2023-03-22T09:48:13.328Z,95597.28
2023-03-22T09:50:47.694Z,95595.53
2023-03-22T09:53:14.845Z,95584.22
2023-03-22T09:55:45.599Z,95587.63
2023-03-22T09:58:19.873Z,95581.47
2023-03-22T10:00:55.836Z,95575.28
2023-03-22T10:03:48.422Z,95576.47
2023-03-22T10:06:14.876Z,95569.41
2023-03-22T10:08:56.348Z,95571.16
2023-03-22T10:11:42.795Z,95555.78
2023-03-22T10:14:30.670Z,95559.41
2023-03-22T10:16:59.153Z,95555.97
2023-03-22T10:19:35.283Z,95548.16
2023-03-22T10:22:03.986Z,95552.72
2023-03-22T10:24:32.882Z,95555.66
2023-03-22T10:26:59.369Z,95552.91
2023-03-22T10:29:39.095Z,95548.47
2023-03-22T10:32:14.428Z,95544.94
2023-03-22T10:34:41.093Z,95543.53
2023-03-22T10:37:11.718Z,95543.66
2023-03-22T10:39:40.826Z,95539.75
2023-03-22T10:42:13.495Z,95535.59
2023-03-22T10:44:48.085Z,95540.13
2023-03-22T10:47:18.179Z,95541.16
2023-03-22T10:49:48.370Z,95534.91
2023-03-22T10:52:27.095Z,95541.03
2023-03-22T10:54:54.146Z,95541.16
2023-03-22T10:57:20.788Z,95537.78
2023-03-22T10:59:51.911Z,95540.31
2023-03-22T11:02:20.930Z,95537.19
2023-03-22T11:04:51.934Z,95523.88
2023-03-22T11:07:34.968Z,95525.59
2023-03-22T11:10:10.755Z,95532.06
2023-03-22T11:12:51.019Z,95527.97
2023-03-22T11:15:28.793Z,95529.03
2023-03-22T11:18:00.161Z,95529.50
2023-03-22T11:20:28.664Z,95529.75
2023-03-22T11:22:59.946Z,95526.63
2023-03-22T11:25:28.088Z,95522.91
2023-03-22T11:28:09.487Z,95524.19
2023-03-22T11:30:37.199Z,95522.31
2023-03-22T11:33:17.063Z,95523.28
2023-03-22T11:35:44.911Z,95522.78
2023-03-22T11:38:22.765Z,95518.28
2023-03-22T11:40:52.177Z,95515.38
2023-03-22T11:43:27.071Z,95526.03
2023-03-22T11:45:56.305Z,95516.31
2023-03-22T11:48:24.271Z,95508.13
2023-03-22T11:50:53.400Z,95507.16
2023-03-22T11:53:22.744Z,95509.13
2023-03-22T11:55:51.372Z,95501.84
2023-03-22T11:58:28.133Z,95493.31
2023-03-22T12:00:57.246Z,95510.63
2023-03-22T12:03:26.437Z,95509.38
2023-03-22T12:05:53.276Z,95511.88
2023-03-22T12:08:38.087Z,95510.94
2023-03-22T12:11:08.528Z,95509.41
2023-03-22T12:13:40.913Z,95512.91
2023-03-22T12:16:08.025Z,95513.19
2023-03-22T12:18:38.646Z,95516.91
2023-03-22T12:21:05.308Z,95512.16
2023-03-22T12:23:34.970Z,95508.69
2023-03-22T12:26:06.912Z,95509.03
2023-03-22T12:28:52.643Z,95504.28
2023-03-22T12:31:22.658Z,95502.75
2023-03-22T12:33:51.555Z,95497.44
2023-03-22T12:36:20.681Z,95496.38
2023-03-22T12:38:50.276Z,95491.63
2023-03-22T12:41:19.152Z,95494.63
2023-03-22T12:43:53.427Z,95493.81
2023-03-22T12:46:22.111Z,95490.31
2023-03-22T12:48:51.135Z,95489.53
2023-03-22T12:51:17.771Z,95487.41
2023-03-22T12:53:53.185Z,95490.16
2023-03-22T12:56:21.729Z,95486.00
2023-03-22T12:58:53.704Z,95473.31
2023-03-22T13:01:39.545Z,95477.69
2023-03-22T13:04:24.588Z,95475.66
2023-03-22T13:06:50.999Z,95475.09
2023-03-22T13:09:34.971Z,95472.44
2023-03-22T13:12:16.792Z,95469.47
2023-03-22T13:14:52.245Z,95463.97
2023-03-22T13:17:25.433Z,95471.47
2023-03-22T13:20:01.369Z,95468.81
2023-03-22T13:22:29.058Z,95468.91
2023-03-22T13:25:00.271Z,95460.16
2023-03-22T13:27:46.958Z,95463.41
2023-03-22T13:30:22.611Z,95457.09
2023-03-22T13:32:52.516Z,95464.84
2023-03-22T13:35:28.463Z,95460.63
2023-03-22T13:38:01.670Z,95461.94
2023-03-22T13:40:28.157Z,95459.59
2023-03-22T13:42:54.697Z,95447.88
2023-03-22T13:45:33.990Z,95441.81
2023-03-22T13:48:11.923Z,95447.88
2023-03-22T13:50:39.721Z,95454.84
2023-03-22T13:53:14.692Z,95454.34
2023-03-22T13:55:58.579Z,95444.25
2023-03-22T13:58:25.010Z,95446.41
2023-03-22T14:00:54.672Z,95439.78
2023-03-22T14:03:27.623Z,95435.50
2023-03-22T14:06:23.530Z,95442.19
2023-03-22T14:08:52.542Z,95431.06
2023-03-22T14:11:43.898Z,95428.97
2023-03-22T14:14:19.492Z,95427.94
2023-03-22T14:16:48.817Z,95420.50
2023-03-22T14:19:23.598Z,95424.75
